Time;durP1;ratioP1;P1;durP2;ratioP2;P2;SDS_P1;SDS_P2;PMS_P1;PMS_P2;Temp;Humidity;BMP_temperature;BMP_pressure;BME280_temperature;BME280_humidity;BME280_pressure;Samples;Min_cycle;Max_cycle;Signal;HPM_P1;HPM_P2
2020/12/08 06:18:58;;;;;;;12.80;2.72;;;16.60;46.90;;;;;;5235280;22;20121;-45
2020/12/08 06:21:28;;;;;;;7.65;2.20;;;16.60;47.20;;;;;;5074895;28;20121;-44
2020/12/08 06:23:58;;;;;;;8.50;2.30;;;16.70;47.30;;;;;;5075368;28;20040;-44
2020/12/08 06:26:36;;;;;;;6.53;2.38;;;16.70;47.30;;;;;;5074917;28;20066;-46
2020/12/08 06:29:09;;;;;;;13.25;2.30;;;16.80;47.30;;;;;;5075259;28;20047;-45
2020/12/08 06:31:45;;;;;;;8.93;1.93;;;16.80;47.30;;;;;;5074855;28;20446;-44
2020/12/08 06:34:26;;;;;;;8.00;1.90;;;16.90;47.40;;;;;;5075086;28;20044;-45
2020/12/08 06:36:52;;;;;;;4.65;1.83;;;16.90;47.30;;;;;;5074930;28;20067;-45
2020/12/08 06:39:18;;;;;;;6.22;2.42;;;17.00;47.40;;;;;;5075002;28;20043;-45
2020/12/08 06:41:44;;;;;;;6.20;2.25;;;17.00;47.40;;;;;;5074785;28;20044;-47
2020/12/08 06:44:21;;;;;;;3.83;1.70;;;17.20;47.50;;;;;;5074985;28;20035;-45
2020/12/08 06:46:59;;;;;;;5.18;1.73;;;17.20;47.50;;;;;;5075103;28;20033;-48
2020/12/08 06:49:25;;;;;;;10.90;2.10;;;17.20;47.50;;;;;;5074767;28;20101;-44
2020/12/08 06:51:55;;;;;;;7.35;2.28;;;17.30;47.60;;;;;;5074683;28;20036;-45
2020/12/08 06:54:21;;;;;;;10.13;2.17;;;17.40;47.80;;;;;;5074920;28;20102;-45
2020/12/08 06:56:47;;;;;;;9.50;1.77;;;17.40;47.80;;;;;;5074335;28;20081;-44
2020/12/08 06:59:22;;;;;;;3.95;2.03;;;17.50;47.80;;;;;;5073878;28;20111;-46
2020/12/08 07:01:55;;;;;;;6.50;1.67;;;17.60;47.80;;;;;;5074240;28;20458;-45
2020/12/08 07:04:22;;;;;;;3.65;1.55;;;17.60;47.80;;;;;;5074554;28;20462;-47
2020/12/08 07:06:48;;;;;;;5.70;1.63;;;17.60;47.80;;;;;;5075061;28;20093;-45
2020/12/08 07:09:14;;;;;;;7.32;2.15;;;17.70;47.80;;;;;;5074488;28;20044;-45
2020/12/08 07:11:40;;;;;;;9.82;1.88;;;17.70;47.80;;;;;;5075084;28;20037;-47
2020/12/08 07:14:06;;;;;;;4.65;1.60;;;17.80;47.90;;;;;;5074617;28;20043;-46
2020/12/08 07:16:35;;;;;;;5.00;1.45;;;17.90;47.90;;;;;;5074649;28;20029;-46
2020/12/08 07:19:04;;;;;;;6.40;1.80;;;17.90;47.80;;;;;;5074237;28;20131;-47
2020/12/08 07:21:29;;;;;;;5.75;1.60;;;17.90;47.70;;;;;;5074652;28;20126;-49
2020/12/08 07:23:56;;;;;;;11.63;1.63;;;18.00;47.70;;;;;;5074332;28;20461;-47
2020/12/08 07:26:30;;;;;;;2.80;1.33;;;18.00;47.80;;;;;;5074754;28;20025;-47
2020/12/08 07:28:58;;;;;;;4.45;1.38;;;18.10;47.80;;;;;;5076408;28;20111;-46
2020/12/08 07:31:26;;;;;;;4.53;1.50;;;18.10;47.80;;;;;;5078575;28;20036;-46
2020/12/08 07:33:52;;;;;;;3.75;1.23;;;18.20;47.80;;;;;;5078782;28;20032;-46
2020/12/08 07:36:25;;;;;;;1.95;1.25;;;18.20;47.80;;;;;;5078325;28;20051;-49
2020/12/08 07:38:53;;;;;;;5.97;1.52;;;18.30;47.70;;;;;;5078837;28;20044;-47
2020/12/08 07:41:20;;;;;;;4.25;1.33;;;18.30;47.60;;;;;;5078508;28;20037;-48
2020/12/08 07:43:46;;;;;;;4.13;1.30;;;18.30;47.60;;;;;;5078526;28;20032;-49
2020/12/08 07:46:11;;;;;;;3.80;1.25;;;18.30;47.50;;;;;;5077539;28;20446;-48
2020/12/08 07:48:37;;;;;;;5.30;1.60;;;18.30;47.50;;;;;;5077249;28;20036;-48
2020/12/08 07:51:02;;;;;;;4.93;2.03;;;18.40;47.50;;;;;;5078200;28;20133;-45
2020/12/08 07:53:37;;;;;;;3.28;1.70;;;18.40;47.50;;;;;;5077946;28;20090;-46
2020/12/08 07:56:04;;;;;;;2.10;1.40;;;18.40;47.40;;;;;;5078314;28;20037;-46
2020/12/08 07:58:30;;;;;;;3.67;1.45;;;18.50;47.40;;;;;;5078278;28;20537;-49
2020/12/08 08:00:57;;;;;;;6.30;1.90;;;18.40;47.30;;;;;;5078105;28;20125;-46
2020/12/08 08:03:23;;;;;;;4.70;1.60;;;18.50;47.40;;;;;;5077859;28;20033;-49
2020/12/08 08:05:48;;;;;;;7.07;1.48;;;18.50;47.30;;;;;;5077649;28;20048;-47
2020/12/08 08:08:14;;;;;;;4.97;1.52;;;18.50;47.30;;;;;;5078134;28;20044;-46
2020/12/08 08:10:39;;;;;;;5.47;1.50;;;18.50;47.20;;;;;;5077825;28;20047;-48
2020/12/08 08:13:05;;;;;;;5.07;1.70;;;18.60;47.20;;;;;;5072411;28;20036;-52
2020/12/08 08:15:30;;;;;;;4.57;1.13;;;18.60;47.80;;;;;;5076148;28;20052;-48
2020/12/08 08:17:56;;;;;;;5.82;1.50;;;18.60;47.20;;;;;;5077756;28;20060;-47
2020/12/08 08:20:21;;;;;;;2.65;1.23;;;18.60;47.10;;;;;;5077848;28;20044;-48
2020/12/08 08:22:47;;;;;;;2.10;1.08;;;18.60;47.00;;;;;;5077517;28;20032;-48
2020/12/08 08:25:12;;;;;;;1.35;1.02;;;18.70;47.70;;;;;;5059732;28;20446;-48
2020/12/08 08:27:38;;;;;;;3.72;1.17;;;18.70;46.90;;;;;;5077154;28;20060;-49
2020/12/08 08:30:04;;;;;;;1.75;1.23;;;18.70;46.80;;;;;;5076921;28;20041;-48
2020/12/08 08:32:29;;;;;;;4.65;1.13;;;18.70;46.80;;;;;;5077257;28;20125;-48
2020/12/08 08:34:55;;;;;;;5.20;1.50;;;18.70;46.70;;;;;;5077185;28;20090;-50
2020/12/08 08:37:20;;;;;;;7.63;1.75;;;18.70;46.60;;;;;;5076846;28;20036;-49
2020/12/08 08:39:46;;;;;;;3.33;1.58;;;18.80;46.70;;;;;;5076258;28;20036;-45
2020/12/08 08:42:11;;;;;;;2.83;1.60;;;18.80;46.60;;;;;;5077107;28;20364;-48
2020/12/08 08:44:37;;;;;;;1.80;1.50;;;18.70;46.60;;;;;;5077064;28;20112;-47
2020/12/08 08:47:02;;;;;;;4.72;1.30;;;18.70;46.70;;;;;;5077217;28;20060;-48
2020/12/08 08:49:28;;;;;;;5.53;1.90;;;18.70;46.70;;;;;;5077093;28;20111;-45
2020/12/08 08:51:53;;;;;;;2.45;1.50;;;18.80;46.80;;;;;;5076967;28;20121;-46
2020/12/08 08:54:19;;;;;;;8.02;1.90;;;18.80;46.60;;;;;;5076860;28;20044;-46
2020/12/08 08:56:44;;;;;;;5.55;2.13;;;18.80;46.20;;;;;;5076581;28;20040;-47
2020/12/08 08:59:10;;;;;;;7.57;1.88;;;18.80;45.60;;;;;;5077356;28;20036;-47
2020/12/08 09:01:35;;;;;;;5.78;1.70;;;18.80;45.80;;;;;;5076999;28;20332;-50
2020/12/08 09:04:02;;;;;;;2.55;1.52;;;18.80;46.00;;;;;;5076974;28;20032;-46
2020/12/08 09:06:28;;;;;;;5.15;1.17;;;18.80;46.00;;;;;;5076208;28;20033;-48
2020/12/08 09:08:53;;;;;;;3.95;1.50;;;18.90;46.00;;;;;;5077146;28;20115;-46
2020/12/08 09:11:19;;;;;;;5.25;1.25;;;18.90;46.00;;;;;;5076685;28;20037;-46
2020/12/08 09:13:44;;;;;;;3.30;1.45;;;18.90;45.90;;;;;;5076509;28;20075;-45
2020/12/08 09:16:10;;;;;;;1.35;0.95;;;19.00;45.90;;;;;;5076305;28;20428;-46
2020/12/08 09:18:36;;;;;;;3.60;1.50;;;19.00;45.80;;;;;;5076598;28;20036;-49
2020/12/08 09:21:02;;;;;;;4.95;1.33;;;19.00;45.80;;;;;;5075761;28;20048;-53
2020/12/08 09:23:27;;;;;;;4.88;1.20;;;19.10;45.80;;;;;;5076689;28;20120;-49
2020/12/08 09:25:54;;;;;;;1.95;1.45;;;19.10;45.80;;;;;;5076354;28;20033;-47
2020/12/08 09:28:21;;;;;;;3.60;1.40;;;19.10;45.70;;;;;;5076677;28;20039;-47
2020/12/08 09:30:47;;;;;;;2.60;1.50;;;19.10;45.70;;;;;;5076543;28;20123;-46
2020/12/08 09:33:13;;;;;;;4.82;1.45;;;19.10;45.60;;;;;;5076066;28;20489;-47
2020/12/08 09:35:38;;;;;;;1.52;1.23;;;19.20;46.30;;;;;;5075506;28;20072;-50
2020/12/08 09:38:04;;;;;;;4.13;1.60;;;19.20;45.60;;;;;;5076274;28;20037;-46
2020/12/08 09:40:29;;;;;;;2.47;1.23;;;19.20;45.60;;;;;;5076117;28;20040;-46
2020/12/08 09:42:55;;;;;;;1.65;1.30;;;19.20;45.60;;;;;;5076070;28;20447;-47
2020/12/08 09:45:20;;;;;;;6.00;1.63;;;19.20;45.60;;;;;;5075511;28;20043;-47
2020/12/08 09:47:46;;;;;;;9.48;2.05;;;19.20;45.50;;;;;;5076049;28;20094;-48
2020/12/08 09:50:12;;;;;;;5.47;2.38;;;19.10;45.50;;;;;;5075814;28;20085;-47
2020/12/08 09:52:38;;;;;;;2.53;1.75;;;19.10;45.60;;;;;;5075287;28;20461;-46
2020/12/08 09:55:05;;;;;;;3.58;1.40;;;19.10;45.80;;;;;;5075564;28;20127;-46
2020/12/08 09:57:31;;;;;;;2.05;1.35;;;19.10;45.90;;;;;;5076251;28;20057;-46
2020/12/08 09:59:56;;;;;;;2.97;1.85;;;19.10;46.00;;;;;;5075393;28;20032;-45
2020/12/08 10:02:25;;;;;;;6.65;2.03;;;19.10;46.00;;;;;;5075551;28;20037;-49
2020/12/08 10:04:51;;;;;;;3.17;1.92;;;19.10;46.00;;;;;;5075343;28;20032;-52
2020/12/08 10:07:19;;;;;;;2.67;1.70;;;19.00;46.00;;;;;;5075601;28;20032;-47
2020/12/08 10:09:45;;;;;;;2.28;1.80;;;19.10;46.20;;;;;;5075697;28;20033;-49
2020/12/08 10:12:11;;;;;;;4.50;1.95;;;19.00;46.20;;;;;;5075286;28;20029;-49
2020/12/08 10:14:36;;;;;;;2.25;1.40;;;19.00;46.30;;;;;;5075332;28;20044;-46
2020/12/08 10:17:03;;;;;;;2.33;1.42;;;19.00;46.30;;;;;;5075549;28;20366;-51
2020/12/08 10:19:29;;;;;;;3.28;1.52;;;19.00;46.30;;;;;;5074913;28;20048;-47
2020/12/08 10:21:56;;;;;;;2.08;1.48;;;19.00;46.30;;;;;;5075103;28;20040;-49
2020/12/08 10:24:22;;;;;;;3.53;1.60;;;19.00;46.30;;;;;;5075241;28;20166;-47
2020/12/08 10:26:47;;;;;;;3.85;1.08;;;19.00;46.40;;;;;;5075279;28;20064;-48
2020/12/08 10:29:13;;;;;;;2.47;1.45;;;19.00;46.30;;;;;;5074978;28;20107;-47
2020/12/08 10:31:38;;;;;;;3.60;1.58;;;19.00;46.40;;;;;;5075335;28;20043;-49
2020/12/08 10:34:04;;;;;;;1.58;1.48;;;19.00;46.40;;;;;;5074470;28;20165;-50
2020/12/08 10:36:30;;;;;;;4.25;1.58;;;19.00;46.40;;;;;;5075560;28;20071;-47
2020/12/08 10:38:56;;;;;;;3.10;1.30;;;19.00;46.30;;;;;;5075148;28;20029;-48
2020/12/08 10:41:23;;;;;;;3.40;1.50;;;19.00;46.40;;;;;;5075021;28;20060;-46
2020/12/08 10:43:48;;;;;;;3.22;1.23;;;19.00;46.40;;;;;;5074668;28;20508;-49
2020/12/08 10:46:14;;;;;;;1.85;1.25;;;19.00;46.40;;;;;;5075063;28;20040;-47
2020/12/08 10:48:40;;;;;;;1.40;1.13;;;19.00;46.40;;;;;;5074878;28;20111;-48
2020/12/08 10:51:05;;;;;;;2.03;1.10;;;18.90;46.30;;;;;;5074830;28;20040;-49
2020/12/08 10:53:31;;;;;;;1.15;1.05;;;19.00;46.40;;;;;;5074750;28;20435;-48
2020/12/08 10:55:56;;;;;;;1.92;1.27;;;18.90;46.40;;;;;;5075146;28;20029;-51
2020/12/08 10:58:22;;;;;;;1.35;1.25;;;18.90;46.40;;;;;;5074453;28;20036;-48
2020/12/08 11:00:47;;;;;;;1.50;1.38;;;18.90;46.40;;;;;;5074908;28;20032;-47
2020/12/08 11:03:13;;;;;;;1.55;1.40;;;18.80;46.40;;;;;;5073982;28;20044;-49
2020/12/08 11:05:39;;;;;;;1.25;1.05;;;18.90;46.40;;;;;;5074981;28;20707;-47
2020/12/08 11:08:05;;;;;;;2.10;1.90;;;18.80;46.40;;;;;;5074706;28;20025;-47
2020/12/08 11:10:30;;;;;;;2.15;1.73;;;18.80;46.70;;;;;;5075073;28;20081;-46
2020/12/08 11:12:56;;;;;;;1.40;1.13;;;18.80;46.60;;;;;;5057233;28;20316;-47
2020/12/08 11:15:21;;;;;;;2.45;1.40;;;18.80;46.60;;;;;;5074645;28;20041;-49
2020/12/08 11:17:47;;;;;;;9.25;1.85;;;18.70;46.50;;;;;;5074394;28;20029;-46
2020/12/08 11:20:12;;;;;;;2.25;1.30;;;18.70;46.60;;;;;;5074677;28;20127;-47
2020/12/08 11:22:38;;;;;;;2.45;1.15;;;18.70;46.60;;;;;;5074554;28;20083;-47
2020/12/08 11:25:04;;;;;;;1.20;1.10;;;18.70;46.60;;;;;;5074852;28;20371;-47
2020/12/08 11:27:30;;;;;;;2.05;1.00;;;18.70;46.70;;;;;;5074477;28;20033;-46
2020/12/08 11:29:56;;;;;;;1.30;1.20;;;18.70;46.70;;;;;;5074579;28;20062;-48
2020/12/08 11:32:22;;;;;;;1.70;1.02;;;18.70;46.70;;;;;;5074313;28;20032;-52
2020/12/08 11:34:47;;;;;;;1.33;1.13;;;18.70;46.70;;;;;;5073911;28;20086;-50
2020/12/08 11:37:13;;;;;;;1.50;1.35;;;18.80;46.70;;;;;;5073989;28;20041;-49
2020/12/08 11:39:39;;;;;;;1.23;1.10;;;18.80;46.60;;;;;;5074321;28;20047;-49
2020/12/08 11:42:06;;;;;;;1.55;1.30;;;18.80;46.60;;;;;;5074506;28;20482;-48
2020/12/08 11:44:31;;;;;;;1.38;1.08;;;18.90;46.60;;;;;;5074230;28;20534;-49
2020/12/08 11:46:57;;;;;;;1.90;1.25;;;18.90;46.50;;;;;;5074051;28;20029;-50
2020/12/08 11:49:23;;;;;;;1.20;1.10;;;18.90;46.40;;;;;;5073814;28;20025;-46
2020/12/08 11:51:48;;;;;;;2.00;1.38;;;18.90;46.40;;;;;;5074296;28;20033;-46
2020/12/08 11:54:15;;;;;;;1.20;1.10;;;18.90;46.30;;;;;;5074557;28;20049;-47
2020/12/08 11:56:40;;;;;;;1.33;1.23;;;19.00;46.40;;;;;;5074187;28;20040;-49
2020/12/08 11:59:06;;;;;;;1.23;1.13;;;18.90;46.30;;;;;;5074387;28;20052;-49
2020/12/08 12:01:31;;;;;;;2.42;1.05;;;19.00;46.30;;;;;;5074333;28;20040;-49
2020/12/08 12:03:57;;;;;;;1.80;1.48;;;19.00;46.30;;;;;;5073510;28;20041;-46
2020/12/08 12:06:23;;;;;;;1.52;1.42;;;19.00;46.30;;;;;;5074049;28;20112;-47
2020/12/08 12:08:49;;;;;;;2.67;1.42;;;19.00;46.30;;;;;;5074451;28;20021;-51
2020/12/08 12:11:15;;;;;;;2.78;1.50;;;19.00;46.30;;;;;;5074125;28;20439;-50
2020/12/08 12:13:40;;;;;;;1.58;1.48;;;19.00;46.20;;;;;;5073584;28;20359;-48
2020/12/08 12:16:06;;;;;;;1.83;1.23;;;19.00;46.20;;;;;;5077499;28;20087;-48
2020/12/08 12:18:31;;;;;;;4.97;1.27;;;19.00;46.10;;;;;;5077373;28;20036;-49
2020/12/08 12:20:57;;;;;;;2.13;1.50;;;18.90;46.20;;;;;;5077311;28;20052;-50
2020/12/08 12:23:22;;;;;;;1.25;1.10;;;18.90;46.30;;;;;;5077647;28;20405;-48
2020/12/08 12:25:48;;;;;;;2.28;1.15;;;19.00;46.30;;;;;;5077678;28;20037;-47
2020/12/08 12:28:13;;;;;;;2.83;1.15;;;18.90;46.30;;;;;;5077821;28;20422;-46
2020/12/08 12:30:39;;;;;;;2.25;1.13;;;18.90;46.30;;;;;;5077484;28;20036;-48
2020/12/08 12:33:04;;;;;;;1.08;1.00;;;19.00;46.40;;;;;;5076991;28;20032;-47
2020/12/08 12:35:30;;;;;;;1.77;1.10;;;19.00;46.40;;;;;;5077150;28;20335;-50
2020/12/08 12:37:55;;;;;;;1.20;1.10;;;19.00;46.30;;;;;;5077201;28;20090;-49
2020/12/08 12:40:21;;;;;;;2.90;1.10;;;19.00;46.30;;;;;;5077278;28;20082;-47
2020/12/08 12:42:46;;;;;;;1.33;1.23;;;19.00;46.30;;;;;;5077448;28;20041;-48
2020/12/08 12:45:12;;;;;;;1.35;1.20;;;19.00;46.30;;;;;;5076729;28;20344;-49
2020/12/08 12:47:37;;;;;;;1.05;0.95;;;19.00;46.30;;;;;;5076933;28;20043;-48
2020/12/08 12:50:04;;;;;;;1.95;1.27;;;19.10;46.30;;;;;;5077100;28;20193;-47
2020/12/08 12:52:29;;;;;;;2.42;1.40;;;19.10;46.30;;;;;;5077150;28;20051;-48
2020/12/08 12:54:55;;;;;;;1.52;1.45;;;19.10;46.30;;;;;;5076931;28;20048;-47
2020/12/08 12:57:20;;;;;;;1.40;1.30;;;19.10;46.30;;;;;;5077128;28;20044;-46
2020/12/08 12:59:46;;;;;;;1.92;1.50;;;19.10;46.20;;;;;;5076566;28;20028;-49
2020/12/08 13:02:11;;;;;;;1.55;1.08;;;19.10;46.20;;;;;;5076489;28;20063;-47
2020/12/08 13:04:37;;;;;;;1.42;1.13;;;19.10;46.20;;;;;;5076785;28;20036;-48
2020/12/08 13:07:03;;;;;;;1.75;1.10;;;19.10;46.20;;;;;;5076537;28;20043;-47
2020/12/08 13:09:28;;;;;;;2.35;1.25;;;19.10;46.20;;;;;;5076888;28;20043;-51
2020/12/08 13:11:54;;;;;;;2.75;1.00;;;19.10;46.30;;;;;;5076707;28;20104;-48
2020/12/08 13:14:19;;;;;;;2.50;1.30;;;19.10;46.30;;;;;;5076255;28;20080;-48
2020/12/08 13:16:46;;;;;;;3.47;1.63;;;19.10;46.20;;;;;;5076319;28;20036;-47
2020/12/08 13:19:12;;;;;;;2.90;1.60;;;19.10;46.30;;;;;;5076155;28;20359;-46
2020/12/08 13:21:38;;;;;;;3.67;1.30;;;19.10;46.20;;;;;;5076353;28;20043;-49
2020/12/08 13:24:03;;;;;;;1.98;1.52;;;19.10;46.30;;;;;;5076623;28;20367;-51
2020/12/08 13:26:29;;;;;;;2.72;1.30;;;19.00;46.30;;;;;;5075931;28;20098;-47
2020/12/08 13:28:54;;;;;;;3.05;1.55;;;19.10;46.30;;;;;;5076317;28;20028;-46
2020/12/08 13:31:20;;;;;;;1.80;1.58;;;19.10;46.20;;;;;;5076120;28;20051;-49
2020/12/08 13:33:45;;;;;;;4.80;1.40;;;19.10;46.20;;;;;;5075970;28;20036;-47
2020/12/08 13:36:11;;;;;;;3.25;1.25;;;19.10;46.20;;;;;;5075875;28;20029;-46
2020/12/08 13:38:36;;;;;;;2.00;1.48;;;19.10;46.30;;;;;;5075933;28;20037;-50
2020/12/08 13:41:02;;;;;;;2.70;1.90;;;19.20;46.40;;;;;;5076084;28;20032;-46
2020/12/08 13:43:27;;;;;;;3.80;1.50;;;19.20;46.60;;;;;;5075547;28;20417;-48
2020/12/08 13:45:53;;;;;;;2.53;2.10;;;19.20;46.60;;;;;;5075838;28;20037;-46
2020/12/08 13:48:18;;;;;;;6.30;2.60;;;19.20;46.60;;;;;;5075510;28;20040;-47
2020/12/08 13:50:45;;;;;;;2.65;1.83;;;19.20;47.00;;;;;;5075889;28;20051;-49
2020/12/08 13:53:12;;;;;;;7.18;2.10;;;19.20;46.90;;;;;;5076193;28;20040;-50
2020/12/08 13:55:40;;;;;;;5.63;1.85;;;19.20;46.90;;;;;;5075710;28;20048;-46
2020/12/08 13:58:05;;;;;;;2.53;1.70;;;19.20;46.90;;;;;;5075903;28;20461;-46
2020/12/08 14:00:32;;;;;;;2.40;1.55;;;19.20;46.80;;;;;;5075784;28;20028;-46
2020/12/08 14:02:59;;;;;;;1.15;1.02;;;19.30;46.80;;;;;;5075555;28;20366;-47
2020/12/08 14:05:24;;;;;;;2.63;1.20;;;19.30;46.70;;;;;;5075664;28;20090;-48
2020/12/08 14:07:50;;;;;;;3.33;1.13;;;19.40;46.70;;;;;;5075580;28;20033;-51
2020/12/08 14:10:18;;;;;;;2.78;1.35;;;19.40;46.60;;;;;;5075845;28;20114;-48
2020/12/08 14:12:43;;;;;;;2.97;1.58;;;19.40;46.50;;;;;;5075679;28;20464;-47
2020/12/08 14:15:09;;;;;;;2.42;1.30;;;19.50;46.50;;;;;;5074871;28;20045;-47
2020/12/08 14:17:34;;;;;;;4.30;1.42;;;19.50;46.50;;;;;;5075523;28;20109;-47
2020/12/08 14:20:00;;;;;;;3.38;1.50;;;19.50;46.40;;;;;;5075766;28;20055;-47
2020/12/08 14:22:25;;;;;;;5.18;1.63;;;19.60;46.40;;;;;;5075352;28;20040;-46
2020/12/08 14:24:51;;;;;;;1.50;1.20;;;19.60;46.40;;;;;;5075010;28;20381;-49
2020/12/08 14:27:17;;;;;;;1.60;1.23;;;19.60;46.40;;;;;;5075150;28;20037;-47
2020/12/08 14:29:42;;;;;;;1.42;1.33;;;19.60;46.40;;;;;;5075014;28;20033;-48
2020/12/08 14:32:08;;;;;;;1.77;1.23;;;19.60;46.30;;;;;;5075001;28;20098;-46
2020/12/08 14:34:33;;;;;;;3.10;1.60;;;19.60;46.30;;;;;;5075084;28;20080;-46
2020/12/08 14:36:59;;;;;;;1.95;1.50;;;19.60;46.30;;;;;;5075187;28;20111;-46
2020/12/08 14:39:24;;;;;;;1.42;1.30;;;19.60;46.30;;;;;;5074110;28;20079;-48
2020/12/08 14:41:50;;;;;;;2.05;1.45;;;19.60;46.30;;;;;;5075032;28;20037;-46
2020/12/08 14:44:16;;;;;;;1.38;1.27;;;19.70;46.30;;;;;;5074689;28;20043;-46
2020/12/08 14:46:43;;;;;;;3.35;2.88;;;19.70;46.30;;;;;;5074771;28;20115;-52
2020/12/08 14:49:09;;;;;;;4.57;2.88;;;19.60;46.10;;;;;;5074650;28;20024;-48
2020/12/08 14:51:34;;;;;;;3.35;2.28;;;19.60;45.70;;;;;;5074271;28;20081;-46
2020/12/08 14:54:00;;;;;;;3.30;1.52;;;19.70;45.90;;;;;;5074353;28;20044;-48
2020/12/08 14:56:26;;;;;;;3.47;1.80;;;19.60;46.00;;;;;;5074359;28;20367;-55
2020/12/08 14:58:53;;;;;;;2.13;1.52;;;19.60;46.20;;;;;;5074652;28;20800;-46
2020/12/08 15:01:19;;;;;;;2.95;1.48;;;19.60;46.40;;;;;;5074793;28;20033;-46
2020/12/08 15:03:44;;;;;;;4.40;1.98;;;19.60;46.70;;;;;;5074710;28;20450;-47
2020/12/08 15:06:11;;;;;;;6.97;1.63;;;19.60;46.80;;;;;;5074301;28;20060;-48
2020/12/08 15:08:36;;;;;;;2.22;1.73;;;19.60;46.80;;;;;;5074453;28;20040;-45
2020/12/08 15:11:02;;;;;;;3.15;2.08;;;19.70;46.90;;;;;;5074750;28;20401;-47
2020/12/08 15:13:28;;;;;;;4.07;1.40;;;19.60;46.80;;;;;;5075048;28;20028;-47
2020/12/08 15:15:55;;;;;;;4.68;1.75;;;19.70;46.80;;;;;;5074416;28;20426;-47
2020/12/08 15:18:21;;;;;;;6.20;2.08;;;19.70;46.80;;;;;;5074539;28;20033;-49
2020/12/08 15:20:47;;;;;;;2.47;1.60;;;19.70;46.90;;;;;;5074728;28;20144;-45
2020/12/08 15:23:13;;;;;;;2.97;1.70;;;19.70;47.00;;;;;;5074552;28;20348;-47
2020/12/08 15:25:38;;;;;;;2.58;1.27;;;19.70;47.10;;;;;;5057250;28;20367;-50
2020/12/08 15:28:04;;;;;;;2.97;2.10;;;19.70;47.40;;;;;;5074888;28;20041;-48
2020/12/08 15:30:29;;;;;;;2.55;1.35;;;19.70;47.60;;;;;;5074654;28;20033;-49
2020/12/08 15:32:55;;;;;;;2.75;1.40;;;19.80;47.80;;;;;;5074122;28;20111;-51
2020/12/08 15:35:24;;;;;;;2.55;1.70;;;19.80;47.90;;;;;;5074244;28;20047;-46
2020/12/08 15:37:49;;;;;;;6.55;1.45;;;19.80;48.00;;;;;;5074223;28;20357;-47
2020/12/08 15:40:15;;;;;;;1.33;1.17;;;19.80;48.00;;;;;;5073855;28;20028;-46
2020/12/08 15:42:40;;;;;;;6.90;1.70;;;19.80;47.90;;;;;;5074918;28;20032;-48
2020/12/08 15:45:06;;;;;;;2.53;1.65;;;19.80;47.90;;;;;;5074612;28;20501;-47
2020/12/08 15:47:31;;;;;;;3.13;1.45;;;19.80;47.90;;;;;;5074373;28;20086;-49
2020/12/08 15:50:05;;;;;;;4.68;1.67;;;19.80;47.90;;;;;;5075756;28;20036;-49
2020/12/08 15:52:35;;;;;;;2.63;1.42;;;19.80;48.00;;;;;;5078464;28;20112;-45
2020/12/08 15:55:00;;;;;;;1.75;1.60;;;19.80;48.00;;;;;;5077830;28;20546;-49
2020/12/08 15:57:26;;;;;;;2.08;1.58;;;19.90;48.10;;;;;;5077838;28;20447;-49
2020/12/08 15:59:52;;;;;;;4.85;1.23;;;19.90;48.10;;;;;;5077317;28;20029;-46
2020/12/08 16:02:19;;;;;;;2.40;1.42;;;19.90;48.10;;;;;;5077607;28;21129;-46
2020/12/08 16:04:46;;;;;;;3.63;1.63;;;19.90;48.00;;;;;;5077900;28;20028;-48
2020/12/08 16:07:11;;;;;;;3.70;1.60;;;19.90;48.00;;;;;;5077950;28;20028;-48
2020/12/08 16:09:37;;;;;;;9.07;1.48;;;19.90;47.90;;;;;;5077544;28;20032;-46
2020/12/08 16:12:03;;;;;;;2.45;1.73;;;19.90;47.90;;;;;;5077975;28;20067;-46
2020/12/08 16:14:28;;;;;;;1.55;1.30;;;19.90;48.00;;;;;;5076218;28;20052;-48
2020/12/08 16:16:54;;;;;;;1.90;1.45;;;19.90;48.00;;;;;;5077693;28;20362;-46
2020/12/08 16:19:19;;;;;;;5.45;1.50;;;19.90;48.00;;;;;;5077739;28;20363;-49
2020/12/08 16:21:45;;;;;;;2.05;1.25;;;19.90;48.00;;;;;;5077357;28;20090;-49
2020/12/08 16:24:10;;;;;;;1.75;1.48;;;20.00;48.10;;;;;;5077303;28;20058;-46
2020/12/08 16:26:37;;;;;;;2.95;1.45;;;20.00;48.00;;;;;;5076800;28;20047;-48
2020/12/08 16:29:02;;;;;;;2.05;1.42;;;20.00;48.00;;;;;;5076234;28;20035;-48
2020/12/08 16:31:28;;;;;;;2.75;1.50;;;20.00;48.00;;;;;;5076806;28;20108;-48
2020/12/08 16:33:53;;;;;;;2.03;1.48;;;20.00;47.90;;;;;;5077404;28;20032;-48
2020/12/08 16:36:22;;;;;;;2.42;1.40;;;20.00;47.90;;;;;;5077559;28;20036;-46
2020/12/08 16:38:47;;;;;;;1.90;1.25;;;20.10;47.80;;;;;;5077374;28;20068;-48
2020/12/08 16:41:13;;;;;;;1.23;1.05;;;20.00;47.80;;;;;;5076908;28;20071;-48
2020/12/08 16:43:39;;;;;;;1.30;1.17;;;20.00;47.70;;;;;;5077441;28;20032;-45
2020/12/08 16:46:04;;;;;;;1.60;1.40;;;20.10;47.70;;;;;;5076923;28;20094;-45
2020/12/08 16:48:30;;;;;;;1.60;1.50;;;20.10;47.70;;;;;;5077214;28;20064;-47
2020/12/08 16:50:55;;;;;;;1.35;1.25;;;20.10;47.60;;;;;;5077041;28;20447;-46
2020/12/08 16:53:22;;;;;;;4.13;1.60;;;20.10;47.60;;;;;;5076976;28;20033;-47
2020/12/08 16:55:47;;;;;;;1.60;1.38;;;20.00;47.50;;;;;;5076840;28;20044;-48
2020/12/08 16:58:13;;;;;;;2.08;1.50;;;20.00;47.50;;;;;;5076644;28;20044;-49
2020/12/08 17:00:38;;;;;;;2.92;1.38;;;20.00;47.50;;;;;;5076150;28;20056;-48
2020/12/08 17:03:04;;;;;;;1.30;1.20;;;20.00;47.40;;;;;;5075785;28;20119;-46
2020/12/08 17:05:29;;;;;;;3.53;1.58;;;20.00;47.40;;;;;;5076782;28;20375;-49
2020/12/08 17:07:56;;;;;;;6.18;1.70;;;20.00;47.40;;;;;;5076461;28;20035;-50
2020/12/08 17:10:21;;;;;;;3.50;1.45;;;19.90;47.30;;;;;;5076665;28;20024;-47
2020/12/08 17:12:47;;;;;;;4.13;1.42;;;19.90;47.40;;;;;;5076990;28;20031;-48
2020/12/08 17:15:13;;;;;;;5.03;1.58;;;19.90;47.40;;;;;;5076457;28;20047;-46
2020/12/08 17:17:39;;;;;;;3.28;1.42;;;19.90;47.40;;;;;;5076601;28;20047;-46
2020/12/08 17:20:07;;;;;;;1.55;1.30;;;19.90;47.40;;;;;;5076676;28;20040;-49
2020/12/08 17:22:32;;;;;;;1.77;1.35;;;19.90;47.40;;;;;;5075819;28;20048;-48
2020/12/08 17:24:58;;;;;;;1.52;1.38;;;19.90;47.50;;;;;;5076514;28;20029;-47
2020/12/08 17:27:24;;;;;;;2.03;1.42;;;19.90;47.40;;;;;;5076309;28;20315;-48
2020/12/08 17:29:49;;;;;;;1.38;1.20;;;19.90;47.40;;;;;;5076721;28;20075;-47
2020/12/08 17:32:15;;;;;;;1.20;1.10;;;19.90;47.40;;;;;;5076156;28;20040;-49
2020/12/08 17:34:41;;;;;;;1.60;1.50;;;20.00;47.40;;;;;;5075856;28;20079;-48
2020/12/08 17:37:10;;;;;;;1.30;1.23;;;19.90;47.40;;;;;;5076139;28;20530;-47
2020/12/08 17:39:37;;;;;;;1.90;1.33;;;19.90;47.30;;;;;;5076184;28;20029;-46
2020/12/08 17:42:05;;;;;;;1.50;1.40;;;19.90;47.40;;;;;;5075795;28;20028;-49
2020/12/08 17:44:31;;;;;;;2.00;1.25;;;19.90;48.00;;;;;;5075379;28;20093;-46
2020/12/08 17:46:56;;;;;;;1.85;1.40;;;19.90;47.30;;;;;;5076155;28;20044;-48
2020/12/08 17:49:22;;;;;;;1.35;1.25;;;19.90;47.30;;;;;;5075986;28;20044;-48
2020/12/08 17:51:47;;;;;;;1.63;1.50;;;19.90;47.30;;;;;;5075123;28;20029;-47
2020/12/08 17:54:13;;;;;;;1.40;1.33;;;19.90;47.30;;;;;;5075804;28;20058;-47
2020/12/08 17:56:39;;;;;;;1.58;1.30;;;19.90;47.30;;;;;;5075469;28;20025;-49
2020/12/08 17:59:04;;;;;;;4.60;1.70;;;19.90;47.30;;;;;;5076233;28;20041;-49
2020/12/08 18:01:37;;;;;;;5.22;2.00;;;19.80;47.20;;;;;;5076045;28;20119;-50
2020/12/08 18:04:03;;;;;;;2.88;2.13;;;19.80;46.90;;;;;;5075400;28;20351;-49
2020/12/08 18:06:29;;;;;;;2.70;1.40;;;19.80;47.00;;;;;;5075731;28;20028;-45
2020/12/08 18:08:54;;;;;;;4.63;1.40;;;19.80;47.00;;;;;;5075548;28;20040;-47
2020/12/08 18:11:20;;;;;;;1.20;1.10;;;19.80;47.10;;;;;;5075250;28;20041;-47
2020/12/08 18:13:45;;;;;;;2.00;1.20;;;19.80;47.20;;;;;;5075574;28;20036;-47
2020/12/08 18:16:11;;;;;;;3.15;1.63;;;19.80;47.20;;;;;;5075536;28;20059;-47
2020/12/08 18:18:37;;;;;;;3.03;1.35;;;19.90;47.30;;;;;;5075153;28;20040;-46
2020/12/08 18:21:02;;;;;;;2.78;1.30;;;19.80;47.20;;;;;;5074486;28;20051;-49
2020/12/08 18:23:28;;;;;;;8.38;1.55;;;19.90;47.20;;;;;;5074683;28;20035;-47
2020/12/08 18:25:57;;;;;;;1.95;1.35;;;19.90;47.20;;;;;;5075007;28;20040;-47
2020/12/08 18:28:22;;;;;;;1.73;1.30;;;19.90;47.20;;;;;;5075302;28;20119;-48
2020/12/08 18:30:48;;;;;;;4.03;1.40;;;19.90;47.10;;;;;;5075282;28;20067;-47
2020/12/08 18:33:14;;;;;;;4.47;1.40;;;19.90;47.10;;;;;;5075237;28;20055;-47
2020/12/08 18:35:39;;;;;;;2.42;1.52;;;19.90;47.10;;;;;;5075069;28;20055;-45
2020/12/08 18:38:05;;;;;;;5.28;1.50;;;19.90;47.00;;;;;;5075572;28;20343;-46
2020/12/08 18:40:30;;;;;;;2.03;1.50;;;20.00;47.10;;;;;;5075313;28;20455;-48
2020/12/08 18:42:58;;;;;;;2.55;1.60;;;20.00;47.00;;;;;;5074837;28;20447;-48
2020/12/08 18:45:24;;;;;;;1.75;1.48;;;20.00;47.00;;;;;;5075242;28;20462;-47
2020/12/08 18:47:51;;;;;;;8.18;1.55;;;20.00;47.00;;;;;;5075058;28;20359;-48
2020/12/08 18:50:19;;;;;;;3.75;1.50;;;20.00;47.00;;;;;;5074655;28;20029;-49
2020/12/08 18:52:46;;;;;;;4.72;1.45;;;20.10;47.70;;;;;;5074933;28;20060;-46
2020/12/08 18:55:12;;;;;;;2.55;1.67;;;20.00;47.00;;;;;;5074729;28;20114;-45
2020/12/08 18:57:39;;;;;;;2.70;1.50;;;20.00;47.00;;;;;;5074917;28;20035;-46